sensor_id;sensor_type;location;lat;lon;timestamp;pressure;altitude;pressure_sealevel;temperature;humidity
18765;BME280;9511;54.242;12.448;2022-11-20T01:43:17;100840.47;;;1.18;100.00
18765;BME280;9511;54.242;12.448;2022-11-20T01:46:08;100832.19;;;1.10;100.00
18765;BME280;9511;54.242;12.448;2022-11-20T01:48:44;100832.56;;;1.03;100.00
18765;BME280;9511;54.242;12.448;2022-11-20T01:51:21;100839.09;;;0.96;100.00
18765;BME280;9511;54.242;12.448;2022-11-20T01:53:52;100840.91;;;0.97;100.00
18765;BME280;9511;54.242;12.448;2022-11-20T01:56:21;100843.22;;;0.93;100.00
18765;BME280;9511;54.242;12.448;2022-11-20T01:58:52;100839.50;;;0.89;100.00
18765;BME280;9511;54.242;12.448;2022-11-20T02:01:21;100838.41;;;0.86;100.00
18765;BME280;9511;54.242;12.448;2022-11-20T02:03:49;100836.50;;;0.83;100.00
18765;BME280;9511;54.242;12.448;2022-11-20T02:32:31;100811.59;;;0.87;100.00
18765;BME280;9511;54.242;12.448;2022-11-20T02:35:06;100806.56;;;0.90;100.00
18765;BME280;9511;54.242;12.448;2022-11-20T02:37:36;100806.47;;;0.88;100.00
18765;BME280;9511;54.242;12.448;2022-11-20T02:40:05;100803.16;;;0.91;100.00
18765;BME280;9511;54.242;12.448;2022-11-20T02:42:33;100800.66;;;0.92;100.00
18765;BME280;9511;54.242;12.448;2022-11-20T02:45:00;100809.06;;;0.88;100.00
18765;BME280;9511;54.242;12.448;2022-11-20T02:47:28;100808.97;;;0.87;100.00
18765;BME280;9511;54.242;12.448;2022-11-20T02:49:56;100814.88;;;0.84;100.00
18765;BME280;9511;54.242;12.448;2022-11-20T02:52:23;100803.25;;;0.79;100.00
18765;BME280;9511;54.242;12.448;2022-11-20T02:54:51;100815.88;;;0.73;100.00
18765;BME280;9511;54.242;12.448;2022-11-20T02:57:18;100810.00;;;0.75;100.00
18765;BME280;9511;54.242;12.448;2022-11-20T02:59:46;100812.09;;;0.81;100.00
18765;BME280;9511;54.242;12.448;2022-11-20T03:02:13;100813.97;;;0.84;100.00
18765;BME280;9511;54.242;12.448;2022-11-20T03:04:41;100812.78;;;0.78;100.00
18765;BME280;9511;54.242;12.448;2022-11-20T03:07:09;100805.78;;;0.64;100.00
18765;BME280;9511;54.242;12.448;2022-11-20T03:09:36;100804.97;;;0.65;100.00
18765;BME280;9511;54.242;12.448;2022-11-20T03:12:04;100805.56;;;0.61;100.00
18765;BME280;9511;54.242;12.448;2022-11-20T03:14:31;100802.88;;;0.60;100.00
18765;BME280;9511;54.242;12.448;2022-11-20T03:16:59;100799.69;;;0.64;100.00
18765;BME280;9511;54.242;12.448;2022-11-20T03:19:26;100804.75;;;0.62;100.00
18765;BME280;9511;54.242;12.448;2022-11-20T03:21:55;100798.78;;;0.63;100.00
18765;BME280;9511;54.242;12.448;2022-11-20T03:24:22;100799.78;;;0.65;100.00
18765;BME280;9511;54.242;12.448;2022-11-20T03:26:49;100805.78;;;0.64;100.00
18765;BME280;9511;54.242;12.448;2022-11-20T03:29:17;100793.66;;;0.65;100.00
18765;BME280;9511;54.242;12.448;2022-11-20T03:31:44;100790.16;;;0.64;100.00
18765;BME280;9511;54.242;12.448;2022-11-20T03:34:12;100785.34;;;0.57;100.00
18765;BME280;9511;54.242;12.448;2022-11-20T03:36:40;100795.97;;;0.60;100.00
18765;BME280;9511;54.242;12.448;2022-11-20T03:39:10;100788.97;;;0.59;100.00
18765;BME280;9511;54.242;12.448;2022-11-20T03:41:39;100788.06;;;0.59;100.00
18765;BME280;9511;54.242;12.448;2022-11-20T04:13:51;100781.06;;;0.58;100.00
18765;BME280;9511;54.242;12.448;2022-11-20T04:16:19;100778.34;;;0.56;100.00
18765;BME280;9511;54.242;12.448;2022-11-20T04:18:46;100777.13;;;0.51;100.00
18765;BME280;9511;54.242;12.448;2022-11-20T04:21:20;100780.75;;;0.53;100.00
18765;BME280;9511;54.242;12.448;2022-11-20T04:23:47;100771.53;;;0.45;100.00
18765;BME280;9511;54.242;12.448;2022-11-20T04:26:15;100764.22;;;0.39;100.00
18765;BME280;9511;54.242;12.448;2022-11-20T04:28:42;100768.66;;;0.40;100.00
18765;BME280;9511;54.242;12.448;2022-11-20T04:31:12;100767.53;;;0.37;100.00
18765;BME280;9511;54.242;12.448;2022-11-20T04:33:40;100773.34;;;0.33;100.00
18765;BME280;9511;54.242;12.448;2022-11-20T04:58:44;100752.81;;;-0.03;100.00
18765;BME280;9511;54.242;12.448;2022-11-20T05:01:13;100751.91;;;-0.03;100.00
18765;BME280;9511;54.242;12.448;2022-11-20T05:03:41;100748.81;;;-0.11;100.00
18765;BME280;9511;54.242;12.448;2022-11-20T05:06:09;100750.28;;;-0.14;100.00
18765;BME280;9511;54.242;12.448;2022-11-20T05:08:37;100745.97;;;-0.14;100.00
18765;BME280;9511;54.242;12.448;2022-11-20T05:11:06;100745.66;;;-0.18;100.00
18765;BME280;9511;54.242;12.448;2022-11-20T05:41:45;100743.69;;;-0.22;100.00
18765;BME280;9511;54.242;12.448;2022-11-20T05:44:32;100738.97;;;-0.28;100.00
18765;BME280;9511;54.242;12.448;2022-11-20T05:47:00;100742.56;;;-0.26;100.00
18765;BME280;9511;54.242;12.448;2022-11-20T05:49:27;100745.47;;;-0.21;100.00
18765;BME280;9511;54.242;12.448;2022-11-20T05:51:54;100741.56;;;-0.28;100.00
18765;BME280;9511;54.242;12.448;2022-11-20T05:54:22;100742.41;;;-0.41;100.00
18765;BME280;9511;54.242;12.448;2022-11-20T05:56:50;100733.53;;;-0.44;100.00
18765;BME280;9511;54.242;12.448;2022-11-20T05:59:17;100734.31;;;-0.45;100.00
18765;BME280;9511;54.242;12.448;2022-11-20T06:01:45;100739.63;;;-0.44;100.00
18765;BME280;9511;54.242;12.448;2022-11-20T06:04:12;100738.63;;;-0.46;100.00
18765;BME280;9511;54.242;12.448;2022-11-20T06:06:39;100743.50;;;-0.50;100.00
18765;BME280;9511;54.242;12.448;2022-11-20T06:09:07;100739.31;;;-0.48;100.00
18765;BME280;9511;54.242;12.448;2022-11-20T06:11:34;100740.00;;;-0.51;100.00
18765;BME280;9511;54.242;12.448;2022-11-20T06:14:03;100736.59;;;-0.50;100.00
18765;BME280;9511;54.242;12.448;2022-11-20T06:44:41;100748.00;;;-0.73;100.00
18765;BME280;9511;54.242;12.448;2022-11-20T06:47:08;100745.78;;;-0.80;100.00
18765;BME280;9511;54.242;12.448;2022-11-20T06:49:36;100742.25;;;-0.81;100.00
18765;BME280;9511;54.242;12.448;2022-11-20T06:52:04;100749.16;;;-0.81;100.00
18765;BME280;9511;54.242;12.448;2022-11-20T06:54:31;100741.97;;;-0.85;100.00
18765;BME280;9511;54.242;12.448;2022-11-20T06:56:58;100749.84;;;-0.84;100.00
18765;BME280;9511;54.242;12.448;2022-11-20T06:59:26;100759.53;;;-0.81;100.00
18765;BME280;9511;54.242;12.448;2022-11-20T07:01:54;100756.19;;;-0.80;100.00
18765;BME280;9511;54.242;12.448;2022-11-20T07:04:22;100743.06;;;-0.82;100.00
18765;BME280;9511;54.242;12.448;2022-11-20T07:06:49;100750.06;;;-0.81;100.00
18765;BME280;9511;54.242;12.448;2022-11-20T07:09:17;100751.19;;;-0.77;100.00
18765;BME280;9511;54.242;12.448;2022-11-20T07:11:44;100756.59;;;-0.74;100.00
18765;BME280;9511;54.242;12.448;2022-11-20T07:14:11;100759.72;;;-0.66;100.00
18765;BME280;9511;54.242;12.448;2022-11-20T07:16:39;100758.34;;;-0.61;100.00
18765;BME280;9511;54.242;12.448;2022-11-20T07:19:07;100756.97;;;-0.56;100.00
18765;BME280;9511;54.242;12.448;2022-11-20T07:21:34;100753.00;;;-0.51;100.00
18765;BME280;9511;54.242;12.448;2022-11-20T07:24:03;100741.31;;;-0.44;100.00
18765;BME280;9511;54.242;12.448;2022-11-20T07:26:30;100742.00;;;-0.47;100.00
18765;BME280;9511;54.242;12.448;2022-11-20T07:28:57;100741.81;;;-0.50;100.00
18765;BME280;9511;54.242;12.448;2022-11-20T07:31:24;100737.59;;;-0.48;100.00
18765;BME280;9511;54.242;12.448;2022-11-20T07:33:52;100741.09;;;-0.47;100.00
18765;BME280;9511;54.242;12.448;2022-11-20T07:36:20;100741.09;;;-0.47;100.00
18765;BME280;9511;54.242;12.448;2022-11-20T07:38:48;100729.13;;;-0.45;100.00
18765;BME280;9511;54.242;12.448;2022-11-20T07:41:15;100729.81;;;-0.48;100.00
18765;BME280;9511;54.242;12.448;2022-11-20T07:43:42;100726.53;;;-0.45;100.00
18765;BME280;9511;54.242;12.448;2022-11-20T07:46:09;100728.41;;;-0.43;100.00
18765;BME280;9511;54.242;12.448;2022-11-20T07:48:37;100721.63;;;-0.41;100.00
18765;BME280;9511;54.242;12.448;2022-11-20T07:51:04;100726.81;;;-0.41;100.00
18765;BME280;9511;54.242;12.448;2022-11-20T07:53:33;100726.63;;;-0.44;100.00
18765;BME280;9511;54.242;12.448;2022-11-20T07:56:01;100732.63;;;-0.45;100.00
18765;BME280;9511;54.242;12.448;2022-11-20T07:58:29;100732.72;;;-0.43;100.00
18765;BME280;9511;54.242;12.448;2022-11-20T08:01:02;100730.44;;;-0.39;100.00
18765;BME280;9511;54.242;12.448;2022-11-20T08:03:30;100731.34;;;-0.38;100.00
18765;BME280;9511;54.242;12.448;2022-11-20T08:05:58;100732.25;;;-0.38;100.00
18765;BME280;9511;54.242;12.448;2022-11-20T08:08:25;100731.75;;;-0.32;100.00
18765;BME280;9511;54.242;12.448;2022-11-20T08:10:56;100736.38;;;-0.28;100.00
18765;BME280;9511;54.242;12.448;2022-11-20T08:13:43;100740.06;;;-0.24;100.00
18765;BME280;9511;54.242;12.448;2022-11-20T08:16:28;100735.75;;;-0.24;100.00
18765;BME280;9511;54.242;12.448;2022-11-20T08:18:55;100741.16;;;-0.34;100.00
18765;BME280;9511;54.242;12.448;2022-11-20T08:21:23;100742.22;;;-0.44;100.00
18765;BME280;9511;54.242;12.448;2022-11-20T08:23:50;100743.03;;;-0.32;100.00
18765;BME280;9511;54.242;12.448;2022-11-20T08:26:20;100744.44;;;-0.23;100.00
18765;BME280;9511;54.242;12.448;2022-11-20T08:28:48;100735.50;;;-0.15;100.00
18765;BME280;9511;54.242;12.448;2022-11-20T08:31:15;100746.06;;;-0.12;100.00
18765;BME280;9511;54.242;12.448;2022-11-20T08:33:42;100750.00;;;-0.06;100.00
18765;BME280;9511;54.242;12.448;2022-11-20T08:36:09;100747.19;;;-0.09;100.00
18765;BME280;9511;54.242;12.448;2022-11-20T08:38:37;100754.91;;;0.03;100.00
18765;BME280;9511;54.242;12.448;2022-11-20T08:41:05;100753.53;;;0.08;100.00
18765;BME280;9511;54.242;12.448;2022-11-20T08:43:54;100760.94;;;0.15;100.00
18765;BME280;9511;54.242;12.448;2022-11-20T08:46:23;100751.94;;;0.23;100.00
18765;BME280;9511;54.242;12.448;2022-11-20T08:48:51;100748.25;;;0.46;100.00
18765;BME280;9511;54.242;12.448;2022-11-20T08:51:19;100739.50;;;0.46;100.00
18765;BME280;9511;54.242;12.448;2022-11-20T08:53:47;100739.72;;;0.49;100.00
18765;BME280;9511;54.242;12.448;2022-11-20T08:56:15;100741.44;;;0.35;100.00
18765;BME280;9511;54.242;12.448;2022-11-20T08:58:43;100749.75;;;0.30;100.00
18765;BME280;9511;54.242;12.448;2022-11-20T09:01:12;100748.31;;;0.21;100.00
18765;BME280;9511;54.242;12.448;2022-11-20T09:03:39;100739.94;;;0.25;100.00
18765;BME280;9511;54.242;12.448;2022-11-20T09:06:07;100746.84;;;0.25;100.00
18765;BME280;9511;54.242;12.448;2022-11-20T09:08:35;100733.72;;;0.37;100.00
18765;BME280;9511;54.242;12.448;2022-11-20T09:11:03;100736.31;;;0.37;100.00
18765;BME280;9511;54.242;12.448;2022-11-20T09:13:33;100744.13;;;0.37;100.00
18765;BME280;9511;54.242;12.448;2022-11-20T09:16:02;100735.34;;;0.35;100.00
18765;BME280;9511;54.242;12.448;2022-11-20T09:18:34;100738.22;;;0.39;100.00
18765;BME280;9511;54.242;12.448;2022-11-20T09:21:03;100731.81;;;0.47;100.00
18765;BME280;9511;54.242;12.448;2022-11-20T09:23:32;100736.03;;;0.59;100.00
18765;BME280;9511;54.242;12.448;2022-11-20T09:26:02;100734.88;;;0.68;100.00
18765;BME280;9511;54.242;12.448;2022-11-20T09:28:29;100734.66;;;0.78;100.00
18765;BME280;9511;54.242;12.448;2022-11-20T09:30:59;100733.47;;;0.87;100.00
18765;BME280;9511;54.242;12.448;2022-11-20T09:33:27;100726.81;;;0.92;100.00
18765;BME280;9511;54.242;12.448;2022-11-20T09:35:55;100735.22;;;1.01;100.00
18765;BME280;9511;54.242;12.448;2022-11-20T09:38:23;100722.19;;;1.01;100.00
18765;BME280;9511;54.242;12.448;2022-11-20T09:40:56;100728.38;;;1.03;100.00
18765;BME280;9511;54.242;12.448;2022-11-20T09:43:32;100724.66;;;1.13;100.00
18765;BME280;9511;54.242;12.448;2022-11-20T09:46:09;100718.97;;;1.05;100.00
18765;BME280;9511;54.242;12.448;2022-11-20T09:48:51;100714.91;;;1.23;100.00
18765;BME280;9511;54.242;12.448;2022-11-20T09:51:35;100716.09;;;1.28;100.00
18765;BME280;9511;54.242;12.448;2022-11-20T09:54:13;100713.84;;;1.35;100.00
18765;BME280;9511;54.242;12.448;2022-11-20T09:56:50;100711.47;;;1.52;100.00
18765;BME280;9511;54.242;12.448;2022-11-20T09:59:29;100708.72;;;1.36;100.00
18765;BME280;9511;54.242;12.448;2022-11-20T10:02:00;100698.38;;;1.23;100.00
18765;BME280;9511;54.242;12.448;2022-11-20T10:04:31;100705.84;;;1.31;100.00
18765;BME280;9511;54.242;12.448;2022-11-20T10:07:06;100699.13;;;1.35;100.00
18765;BME280;9511;54.242;12.448;2022-11-20T10:09:40;100700.22;;;1.39;100.00
18765;BME280;9511;54.242;12.448;2022-11-20T10:12:15;100703.50;;;1.36;100.00
18765;BME280;9511;54.242;12.448;2022-11-20T10:14:58;100707.94;;;1.52;100.00
18765;BME280;9511;54.242;12.448;2022-11-20T10:17:40;100704.72;;;1.56;100.00
18765;BME280;9511;54.242;12.448;2022-11-20T10:20:22;100708.69;;;1.64;100.00
18765;BME280;9511;54.242;12.448;2022-11-20T10:23:21;100707.22;;;1.54;100.00
18765;BME280;9511;54.242;12.448;2022-11-20T10:26:17;100707.13;;;1.53;100.00
18765;BME280;9511;54.242;12.448;2022-11-20T10:29:05;100707.94;;;1.52;100.00
18765;BME280;9511;54.242;12.448;2022-11-20T10:31:42;100707.59;;;1.60;100.00
18765;BME280;9511;54.242;12.448;2022-11-20T10:34:21;100705.47;;;1.68;100.00
18765;BME280;9511;54.242;12.448;2022-11-20T10:36:55;100696.63;;;1.66;100.00
18765;BME280;9511;54.242;12.448;2022-11-20T10:39:36;100703.84;;;1.85;100.00
18765;BME280;9511;54.242;12.448;2022-11-20T10:42:11;100703.47;;;1.64;100.00
18765;BME280;9511;54.242;12.448;2022-11-20T10:44:49;100712.09;;;1.63;100.00
18765;BME280;9511;54.242;12.448;2022-11-20T10:47:32;100708.47;;;1.46;100.00
18765;BME280;9511;54.242;12.448;2022-11-20T10:50:05;100702.81;;;1.39;100.00
18765;BME280;9511;54.242;12.448;2022-11-20T10:52:48;100703.72;;;1.39;100.00
18765;BME280;9511;54.242;12.448;2022-11-20T10:55:30;100708.13;;;1.40;100.00
18765;BME280;9511;54.242;12.448;2022-11-20T10:58:04;100707.66;;;1.47;100.00
18765;BME280;9511;54.242;12.448;2022-11-20T11:00:37;100706.06;;;1.49;100.00
18765;BME280;9511;54.242;12.448;2022-11-20T11:03:20;100704.78;;;1.43;100.00
18765;BME280;9511;54.242;12.448;2022-11-20T11:05:50;100696.25;;;1.45;100.00
18765;BME280;9511;54.242;12.448;2022-11-20T11:08:21;100701.22;;;1.55;100.00
18765;BME280;9511;54.242;12.448;2022-11-20T11:10:52;100706.97;;;1.50;100.00
18765;BME280;9511;54.242;12.448;2022-11-20T11:13:21;100705.97;;;1.48;100.00
18765;BME280;9511;54.242;12.448;2022-11-20T11:15:49;100695.00;;;1.53;100.00
18765;BME280;9511;54.242;12.448;2022-11-20T11:18:24;100687.28;;;1.70;100.00
18765;BME280;9511;54.242;12.448;2022-11-20T11:20:53;100685.84;;;1.75;100.00
18765;BME280;9511;54.242;12.448;2022-11-20T11:23:33;100689.41;;;2.21;100.00
18765;BME280;9511;54.242;12.448;2022-11-20T11:26:06;100688.22;;;2.62;100.00
18765;BME280;9511;54.242;12.448;2022-11-20T11:28:34;100687.31;;;2.92;100.00
18765;BME280;9511;54.242;12.448;2022-11-20T11:31:03;100686.41;;;3.08;98.65
18765;BME280;9511;54.242;12.448;2022-11-20T11:33:36;100684.28;;;3.17;96.96
18765;BME280;9511;54.242;12.448;2022-11-20T11:36:17;100693.34;;;3.24;95.50
18765;BME280;9511;54.242;12.448;2022-11-20T11:38:45;100680.34;;;3.09;94.98
18765;BME280;9511;54.242;12.448;2022-11-20T11:41:20;100685.16;;;2.85;93.96
18765;BME280;9511;54.242;12.448;2022-11-20T11:43:52;100683.88;;;2.77;93.69
18765;BME280;9511;54.242;12.448;2022-11-20T11:46:37;100683.34;;;2.68;93.87
18765;BME280;9511;54.242;12.448;2022-11-20T11:49:15;100680.31;;;2.60;93.83
18765;BME280;9511;54.242;12.448;2022-11-20T11:51:56;100685.34;;;2.57;94.14
18765;BME280;9511;54.242;12.448;2022-11-20T11:54:27;100684.69;;;2.45;94.82
18765;BME280;9511;54.242;12.448;2022-11-20T11:56:58;100682.84;;;2.59;95.38
18765;BME280;9511;54.242;12.448;2022-11-20T11:59:38;100683.22;;;2.81;95.63
18765;BME280;9511;54.242;12.448;2022-11-20T12:02:17;100690.53;;;2.72;95.57
18765;BME280;9511;54.242;12.448;2022-11-20T12:04:55;100686.06;;;2.70;95.04
18765;BME280;9511;54.242;12.448;2022-11-20T12:07:34;100673.06;;;2.71;95.18
18765;BME280;9511;54.242;12.448;2022-11-20T12:10:13;100675.47;;;2.99;95.84
18765;BME280;9511;54.242;12.448;2022-11-20T12:12:44;100668.03;;;3.23;95.75
18765;BME280;9511;54.242;12.448;2022-11-20T12:15:18;100673.88;;;2.86;94.61
18765;BME280;9511;54.242;12.448;2022-11-20T12:17:47;100666.41;;;2.92;94.87
18765;BME280;9511;54.242;12.448;2022-11-20T12:20:15;100668.13;;;2.45;94.87
18765;BME280;9511;54.242;12.448;2022-11-20T12:22:48;100665.13;;;2.53;95.93
18765;BME280;9511;54.242;12.448;2022-11-20T12:25:22;100671.97;;;2.05;95.70
18765;BME280;9511;54.242;12.448;2022-11-20T12:28:04;100674.88;;;1.80;96.33
18765;BME280;9511;54.242;12.448;2022-11-20T12:30:41;100677.75;;;1.70;97.38
18765;BME280;9511;54.242;12.448;2022-11-20T12:33:31;100672.91;;;1.62;98.41
18765;BME280;9511;54.242;12.448;2022-11-20T12:36:09;100670.03;;;1.57;99.10
18765;BME280;9511;54.242;12.448;2022-11-20T12:38:52;100660.47;;;1.43;99.88
18765;BME280;9511;54.242;12.448;2022-11-20T12:41:39;100656.31;;;1.31;100.00
18765;BME280;9511;54.242;12.448;2022-11-20T12:44:43;100647.53;;;1.29;100.00
18765;BME280;9511;54.242;12.448;2022-11-20T12:47:55;100657.13;;;1.30;100.00
18765;BME280;9511;54.242;12.448;2022-11-20T12:50:33;100653.47;;;1.27;100.00
18765;BME280;9511;54.242;12.448;2022-11-20T12:53:04;100656.31;;;1.31;100.00
18765;BME280;9511;54.242;12.448;2022-11-20T12:55:47;100649.16;;;1.72;100.00
18765;BME280;9511;54.242;12.448;2022-11-20T12:58:23;100641.06;;;2.59;100.00
18765;BME280;9511;54.242;12.448;2022-11-20T13:00:59;100642.03;;;3.42;100.00
18765;BME280;9511;54.242;12.448;2022-11-20T13:03:38;100640.81;;;3.19;98.14
18765;BME280;9511;54.242;12.448;2022-11-20T13:06:13;100643.75;;;3.76;95.98
18765;BME280;9511;54.242;12.448;2022-11-20T13:08:45;100642.69;;;4.62;93.53
18765;BME280;9511;54.242;12.448;2022-11-20T13:11:19;100632.16;;;4.79;88.86
18765;BME280;9511;54.242;12.448;2022-11-20T13:14:01;100627.63;;;5.54;86.86
18765;BME280;9511;54.242;12.448;2022-11-20T13:16:37;100625.84;;;6.16;83.55
18765;BME280;9511;54.242;12.448;2022-11-20T13:19:10;100628.03;;;6.71;80.86
18765;BME280;9511;54.242;12.448;2022-11-20T13:21:40;100620.25;;;7.97;78.69
18765;BME280;9511;54.242;12.448;2022-11-20T13:24:21;100622.06;;;8.81;73.17
18765;BME280;9511;54.242;12.448;2022-11-20T13:27:00;100625.19;;;7.37;70.74
18765;BME280;9511;54.242;12.448;2022-11-20T13:29:27;100608.50;;;7.86;70.19
18765;BME280;9511;54.242;12.448;2022-11-20T13:32:04;100603.97;;;8.36;69.61
18765;BME280;9511;54.242;12.448;2022-11-20T13:34:32;100601.41;;;9.59;67.13
18765;BME280;9511;54.242;12.448;2022-11-20T13:37:01;100603.97;;;9.91;63.71
18765;BME280;9511;54.242;12.448;2022-11-20T13:39:31;100600.94;;;10.10;62.13
18765;BME280;9511;54.242;12.448;2022-11-20T13:42:00;100597.94;;;9.96;60.86
18765;BME280;9511;54.242;12.448;2022-11-20T13:44:34;100599.19;;;9.43;61.04
18765;BME280;9511;54.242;12.448;2022-11-20T13:47:20;100590.06;;;10.32;61.51
18765;BME280;9511;54.242;12.448;2022-11-20T13:49:48;100590.75;;;9.56;60.37
18765;BME280;9511;54.242;12.448;2022-11-20T13:52:31;100586.75;;;8.77;62.23
18765;BME280;9511;54.242;12.448;2022-11-20T13:55:11;100584.75;;;8.98;62.90
18765;BME280;9511;54.242;12.448;2022-11-20T13:57:58;100584.34;;;9.46;61.64
18765;BME280;9511;54.242;12.448;2022-11-20T14:00:30;100586.88;;;8.80;61.29
18765;BME280;9511;54.242;12.448;2022-11-20T14:03:10;100584.13;;;8.77;61.40
18765;BME280;9511;54.242;12.448;2022-11-20T14:05:49;100580.53;;;8.45;62.72
18765;BME280;9511;54.242;12.448;2022-11-20T14:08:25;100570.16;;;9.11;62.50
18765;BME280;9511;54.242;12.448;2022-11-20T14:11:03;100571.91;;;8.79;61.35
18765;BME280;9511;54.242;12.448;2022-11-20T14:13:30;100573.91;;;8.58;61.42
18765;BME280;9511;54.242;12.448;2022-11-20T14:15:58;100571.28;;;8.59;61.01
18765;BME280;9511;54.242;12.448;2022-11-20T14:18:27;100567.16;;;8.67;61.68
18765;BME280;9511;54.242;12.448;2022-11-20T14:20:54;100571.38;;;8.34;60.84
18765;BME280;9511;54.242;12.448;2022-11-20T14:23:27;100583.13;;;6.20;64.61
18765;BME280;9511;54.242;12.448;2022-11-20T14:25:55;100589.59;;;5.66;67.72
18765;BME280;9511;54.242;12.448;2022-11-20T14:28:26;100592.72;;;4.39;71.63
18765;BME280;9511;54.242;12.448;2022-11-20T14:30:54;100598.66;;;3.64;74.24
18765;BME280;9511;54.242;12.448;2022-11-20T14:33:23;100600.34;;;2.95;77.12
18765;BME280;9511;54.242;12.448;2022-11-20T14:35:55;100598.63;;;2.79;78.95
18765;BME280;9511;54.242;12.448;2022-11-20T14:38:25;100592.09;;;2.55;80.12
18765;BME280;9511;54.242;12.448;2022-11-20T14:40:53;100592.88;;;2.21;81.63
18765;BME280;9511;54.242;12.448;2022-11-20T14:43:23;100592.00;;;2.06;83.41
18765;BME280;9511;54.242;12.448;2022-11-20T14:45:58;100594.09;;;1.97;84.37
18765;BME280;9511;54.242;12.448;2022-11-20T14:48:30;100597.19;;;1.90;85.67
18765;BME280;9511;54.242;12.448;2022-11-20T14:51:00;100600.44;;;1.85;86.07
18765;BME280;9511;54.242;12.448;2022-11-20T14:53:27;100604.19;;;1.76;86.89
18765;BME280;9511;54.242;12.448;2022-11-20T14:55:56;100592.06;;;1.76;87.84
18765;BME280;9511;54.242;12.448;2022-11-20T14:58:26;100590.00;;;1.71;88.13
18765;BME280;9511;54.242;12.448;2022-11-20T15:00:55;100587.13;;;1.66;88.55
18765;BME280;9511;54.242;12.448;2022-11-20T15:03:29;100570.97;;;1.57;89.30
18765;BME280;9511;54.242;12.448;2022-11-20T15:05:57;100570.63;;;1.51;89.94
18765;BME280;9511;54.242;12.448;2022-11-20T15:08:25;100575.47;;;1.45;90.46
18765;BME280;9511;54.242;12.448;2022-11-20T15:10:54;100570.63;;;1.36;90.68
18765;BME280;9511;54.242;12.448;2022-11-20T15:13:26;100559.19;;;1.19;91.19
18765;BME280;9511;54.242;12.448;2022-11-20T15:15:57;100567.31;;;1.09;91.61
18765;BME280;9511;54.242;12.448;2022-11-20T15:18:28;100572.75;;;0.99;91.81
18765;BME280;9511;54.242;12.448;2022-11-20T15:20:58;100570.56;;;0.92;92.14
18765;BME280;9511;54.242;12.448;2022-11-20T15:23:29;100576.06;;;0.82;92.48
18765;BME280;9511;54.242;12.448;2022-11-20T15:25:57;100578.16;;;0.59;92.62
18765;BME280;9511;54.242;12.448;2022-11-20T15:28:30;100571.00;;;0.42;92.96
18765;BME280;9511;54.242;12.448;2022-11-20T15:30:58;100566.44;;;0.24;92.08
18765;BME280;9511;54.242;12.448;2022-11-20T15:33:26;100562.06;;;0.23;91.74
18765;BME280;9511;54.242;12.448;2022-11-20T15:35:53;100559.75;;;0.15;91.21
18765;BME280;9511;54.242;12.448;2022-11-20T15:38:21;100556.69;;;0.07;91.06
18765;BME280;9511;54.242;12.448;2022-11-20T15:40:49;100563.38;;;0.04;90.86
18765;BME280;9511;54.242;12.448;2022-11-20T15:43:17;100562.19;;;-0.02;90.96
18765;BME280;9511;54.242;12.448;2022-11-20T15:45:46;100562.53;;;-0.10;90.62
18765;BME280;9511;54.242;12.448;2022-11-20T15:48:18;100567.50;;;-0.13;90.82
18765;BME280;9511;54.242;12.448;2022-11-20T15:50:50;100563.91;;;-0.15;90.84
18765;BME280;9511;54.242;12.448;2022-11-20T15:53:19;100564.09;;;-0.12;91.21
18765;BME280;9511;54.242;12.448;2022-11-20T15:55:46;100559.03;;;-0.11;91.30
18765;BME280;9511;54.242;12.448;2022-11-20T15:58:15;100557.69;;;-0.17;91.33
18765;BME280;9511;54.242;12.448;2022-11-20T16:00:43;100559.53;;;-0.16;91.67
18765;BME280;9511;54.242;12.448;2022-11-20T16:03:12;100546.41;;;-0.18;91.52
18765;BME280;9511;54.242;12.448;2022-11-20T16:05:39;100551.34;;;-0.22;91.69
18765;BME280;9511;54.242;12.448;2022-11-20T16:08:06;100543.81;;;-0.18;92.43
18765;BME280;9511;54.242;12.448;2022-11-20T16:10:34;100535.25;;;-0.17;92.88
18765;BME280;9511;54.242;12.448;2022-11-20T16:13:01;100534.53;;;-0.14;92.35
18765;BME280;9511;54.242;12.448;2022-11-20T16:15:53;100530.44;;;-0.11;93.04
18765;BME280;9511;54.242;12.448;2022-11-20T16:18:23;100533.28;;;-0.06;93.46
18765;BME280;9511;54.242;12.448;2022-11-20T16:20:52;100532.53;;;-0.05;92.97
18765;BME280;9511;54.242;12.448;2022-11-20T16:23:21;100533.19;;;-0.08;93.57
18765;BME280;9511;54.242;12.448;2022-11-20T16:25:49;100536.91;;;-0.04;93.89
18765;BME280;9511;54.242;12.448;2022-11-20T16:28:17;100531.63;;;-0.19;93.87
18765;BME280;9511;54.242;12.448;2022-11-20T16:30:45;100533.81;;;-0.25;93.88
18765;BME280;9511;54.242;12.448;2022-11-20T16:33:15;100538.53;;;-0.33;93.51
18765;BME280;9511;54.242;12.448;2022-11-20T16:35:43;100548.63;;;-0.24;94.53
18765;BME280;9511;54.242;12.448;2022-11-20T16:38:10;100543.41;;;-0.24;95.00
18765;BME280;9511;54.242;12.448;2022-11-20T16:40:37;100553.84;;;-0.37;95.22
18765;BME280;9511;54.242;12.448;2022-11-20T16:43:08;100553.94;;;-0.36;95.65
18765;BME280;9511;54.242;12.448;2022-11-20T16:45:40;100557.53;;;-0.47;95.97
18765;BME280;9511;54.242;12.448;2022-11-20T16:48:14;100569.72;;;-0.59;95.98
18765;BME280;9511;54.242;12.448;2022-11-20T16:50:47;100569.94;;;-0.56;96.87
18765;BME280;9511;54.242;12.448;2022-11-20T16:53:15;100562.31;;;-0.53;97.80
18765;BME280;9511;54.242;12.448;2022-11-20T16:55:42;100565.22;;;-0.62;97.32
18765;BME280;9511;54.242;12.448;2022-11-20T16:58:10;100566.53;;;-0.55;98.05
18765;BME280;9511;54.242;12.448;2022-11-20T17:00:38;100559.53;;;-0.56;98.82
18765;BME280;9511;54.242;12.448;2022-11-20T17:03:06;100554.75;;;-0.50;99.05
18765;BME280;9511;54.242;12.448;2022-11-20T17:05:34;100563.53;;;-0.48;99.55
18765;BME280;9511;54.242;12.448;2022-11-20T17:08:03;100553.13;;;-0.48;99.33
18765;BME280;9511;54.242;12.448;2022-11-20T17:10:30;100564.94;;;-0.40;100.00